Řízení letového provozu České republiky
Letiste: LKCV Aktualizace: 24.08.2016 23:08:06  UTC
 METAR LKCV 24.08. 23:00 ...
METAR LKCV 242300Z VRB01KT CAVOK 14/12 Q1025 NOSIG=
 TAF LKCV 24.08. 17:00 ...
TAF LKCV 241700Z 2418/2518 VRB02KT CAVOK      BECMG 2508/2510 10006KT=